createdAt,value
2017-10-09T00:03:16.613Z,0
2017-10-09T00:13:16.581Z,0
2017-10-09T00:23:16.588Z,0
2017-10-09T00:33:16.633Z,0
2017-10-09T00:43:17.393Z,0
2017-10-09T00:53:16.667Z,0
2017-10-09T01:03:16.628Z,0
2017-10-09T01:13:16.643Z,0
2017-10-09T01:23:16.683Z,0
2017-10-09T01:33:16.645Z,0
2017-10-09T01:43:16.653Z,0
2017-10-09T01:53:16.674Z,0
2017-10-09T02:03:16.768Z,0
2017-10-09T02:13:16.736Z,0
2017-10-09T02:23:16.731Z,0
2017-10-09T02:33:16.708Z,0
2017-10-09T02:43:16.696Z,0
2017-10-09T02:53:16.831Z,0
2017-10-09T03:03:16.854Z,0
2017-10-09T03:13:16.749Z,0
2017-10-09T03:23:16.880Z,0
2017-10-09T03:33:16.789Z,0
2017-10-09T03:43:16.765Z,0
2017-10-09T03:53:16.807Z,0
2017-10-09T04:03:16.796Z,0
2017-10-09T04:13:17.387Z,0
2017-10-09T04:23:16.847Z,0
2017-10-09T04:33:16.814Z,0
2017-10-09T04:43:16.807Z,0
2017-10-09T04:53:16.895Z,0
2017-10-09T05:03:16.789Z,0
2017-10-09T05:13:16.943Z,4
2017-10-09T05:23:16.844Z,16
2017-10-09T05:33:16.852Z,64
2017-10-09T05:43:17.753Z,224
2017-10-09T05:53:16.978Z,612
2017-10-09T06:03:17.004Z,1072
2017-10-09T06:13:17.107Z,1416
2017-10-09T06:23:16.962Z,2252
2017-10-09T06:33:17.005Z,2024
2017-10-09T06:43:17.142Z,2880
2017-10-09T06:53:17.763Z,3176
2017-10-09T07:03:17.076Z,3868
2017-10-09T07:13:17.017Z,4164
2017-10-09T07:23:17.042Z,3804
2017-10-09T07:33:17.004Z,5892
2017-10-09T07:43:16.986Z,5040
2017-10-09T07:53:16.969Z,6800
2017-10-09T08:03:17.029Z,7968
2017-10-09T08:13:16.996Z,8788
2017-10-09T08:23:16.985Z,9996
2017-10-09T08:33:17.007Z,7268
2017-10-09T08:43:18.014Z,9912
2017-10-09T08:53:17.062Z,10308
2017-10-09T09:03:17.070Z,9776
2017-10-09T09:13:17.073Z,9364
2017-10-09T09:23:17.031Z,8628
2017-10-09T09:33:17.066Z,7316
2017-10-09T09:43:17.088Z,6812
2017-10-09T09:53:17.098Z,13704
2017-10-09T10:03:17.641Z,13080
2017-10-09T10:13:17.159Z,11224
2017-10-09T10:23:17.130Z,11860
2017-10-09T10:33:17.138Z,11272
2017-10-09T10:43:17.137Z,11712
2017-10-09T10:53:17.105Z,9848
2017-10-09T11:03:17.142Z,12608
2017-10-09T11:13:17.185Z,12800
2017-10-09T11:23:17.227Z,11460
2017-10-09T11:33:17.210Z,10480
2017-10-09T11:43:17.190Z,10460
2017-10-09T11:53:17.218Z,10524
2017-10-09T12:03:17.953Z,10492
2017-10-09T12:13:17.243Z,10316
2017-10-09T12:23:17.375Z,9808
2017-10-09T12:33:17.346Z,8948
2017-10-09T12:43:17.335Z,5940
2017-10-09T12:53:17.419Z,8676
2017-10-09T13:03:17.355Z,11244
2017-10-09T13:13:17.379Z,10400
2017-10-09T13:23:17.297Z,7444
2017-10-09T13:33:18.135Z,7688
2017-10-09T13:43:17.410Z,6472
2017-10-09T13:53:17.368Z,5712
2017-10-09T14:03:17.388Z,6824
2017-10-09T14:13:17.375Z,6796
2017-10-09T14:23:17.425Z,5352
2017-10-09T14:43:17.405Z,3908
2017-10-09T14:53:17.485Z,1928
2017-10-09T15:03:17.502Z,2388
2017-10-09T15:13:17.404Z,2092
2017-10-09T15:23:17.416Z,1556
2017-10-09T15:33:18.440Z,1048
2017-10-09T15:43:17.476Z,704
2017-10-09T15:53:17.483Z,496
2017-10-09T16:03:17.468Z,428
2017-10-09T16:13:17.446Z,420
2017-10-09T16:23:17.482Z,140
2017-10-09T16:33:17.498Z,60
2017-10-09T16:43:17.530Z,52
2017-10-09T16:53:17.482Z,32
2017-10-09T17:03:17.590Z,12
2017-10-09T17:13:17.500Z,4
2017-10-09T17:23:17.544Z,0
2017-10-09T17:33:17.640Z,0
2017-10-09T17:43:18.150Z,0
2017-10-09T17:53:17.536Z,0
2017-10-09T18:03:17.564Z,0
2017-10-09T18:13:18.599Z,0
2017-10-09T18:23:17.604Z,0
2017-10-09T18:33:17.594Z,0
2017-10-09T18:43:18.389Z,0
2017-10-09T18:53:17.610Z,0
2017-10-09T19:03:17.641Z,0
2017-10-09T19:13:17.700Z,0
2017-10-09T19:23:17.885Z,0
2017-10-09T19:33:19.336Z,0
2017-10-09T19:43:19.410Z,0
2017-10-09T19:53:18.246Z,0
2017-10-09T20:03:18.280Z,0
2017-10-09T20:13:18.328Z,0
2017-10-09T20:23:18.304Z,0
2017-10-09T20:33:18.300Z,0
2017-10-09T20:43:18.580Z,0
2017-10-09T20:53:18.293Z,0
2017-10-09T21:03:18.379Z,0
2017-10-09T21:13:18.366Z,0
2017-10-09T21:23:24.844Z,0
2017-10-09T21:33:18.399Z,0
2017-10-09T21:43:20.371Z,0
2017-10-09T21:53:20.426Z,0
2017-10-09T22:03:22.887Z,0
2017-10-09T22:13:18.348Z,0
2017-10-09T22:23:27.877Z,0
2017-10-09T22:33:18.354Z,0
2017-10-09T22:43:24.908Z,0
2017-10-09T22:53:19.519Z,0
2017-10-09T23:03:18.512Z,0
2017-10-09T23:13:20.187Z,0
2017-10-09T23:23:19.509Z,0
2017-10-09T23:33:18.494Z,0
2017-10-09T23:43:19.479Z,0
2017-10-09T23:53:20.490Z,0
